createdAt,value
2022-09-04T00:02:25.008Z,21.90
2022-09-04T00:05:11.746Z,21.80
2022-09-04T00:07:57.309Z,21.80
2022-09-04T00:11:20.702Z,21.80
2022-09-04T00:14:10.971Z,21.70
2022-09-04T00:16:58.529Z,21.70
2022-09-04T00:19:59.623Z,21.70
2022-09-04T00:22:33.917Z,21.60
2022-09-04T00:25:10.253Z,21.60
2022-09-04T00:27:46.251Z,21.60
2022-09-04T00:30:20.478Z,21.60
2022-09-04T00:33:30.659Z,21.50
2022-09-04T00:36:04.003Z,21.50
2022-09-04T00:39:03.464Z,21.40
2022-09-04T00:42:04.590Z,21.40
2022-09-04T00:45:16.561Z,21.40
2022-09-04T00:48:08.188Z,21.40
2022-09-04T00:51:03.208Z,21.40
2022-09-04T00:54:00.689Z,21.30
2022-09-04T00:56:39.527Z,21.30
2022-09-04T00:59:52.563Z,21.20
2022-09-04T01:02:51.985Z,21.20
2022-09-04T01:05:36.292Z,21.20
2022-09-04T01:08:41.026Z,21.20
2022-09-04T01:11:34.902Z,21.20
2022-09-04T01:15:15.841Z,21.10
2022-09-04T01:18:12.893Z,21.10
2022-09-04T01:21:39.081Z,21.10
2022-09-04T01:24:48.471Z,21.00
2022-09-04T01:27:42.637Z,21.00
2022-09-04T01:30:21.210Z,21.00
2022-09-04T01:33:24.131Z,21.00
2022-09-04T01:36:15.481Z,20.90
2022-09-04T01:38:51.219Z,20.90
2022-09-04T01:41:38.799Z,20.90
2022-09-04T01:44:10.116Z,20.80
2022-09-04T01:47:17.151Z,20.80
2022-09-04T01:49:58.320Z,20.80
2022-09-04T01:53:02.401Z,20.80
2022-09-04T01:56:14.764Z,20.80
2022-09-04T01:58:51.811Z,20.80
2022-09-04T02:02:01.440Z,20.70
2022-09-04T02:04:54.493Z,20.70
2022-09-04T02:07:33.105Z,20.70
2022-09-04T02:10:37.160Z,20.70
2022-09-04T02:14:09.467Z,20.70
2022-09-04T02:16:44.831Z,20.60
2022-09-04T02:19:30.888Z,20.60
2022-09-04T02:22:45.139Z,20.60
2022-09-04T02:25:36.246Z,20.60
2022-09-04T02:28:44.724Z,20.50
2022-09-04T02:31:35.320Z,20.50
2022-09-04T02:34:18.050Z,20.50
2022-09-04T02:36:56.360Z,20.50
2022-09-04T02:40:18.455Z,20.50
2022-09-04T02:43:45.938Z,20.40
2022-09-04T02:47:12.445Z,20.40
2022-09-04T02:50:18.712Z,20.40
2022-09-04T02:53:29.077Z,20.40
2022-09-04T02:56:15.801Z,20.40
2022-09-04T02:59:11.146Z,20.30
2022-09-04T03:02:35.982Z,20.40
2022-09-04T03:05:28.652Z,20.30
2022-09-04T03:08:12.030Z,20.30
2022-09-04T03:10:44.810Z,20.30
2022-09-04T03:13:29.586Z,20.30
2022-09-04T03:16:15.822Z,20.20
2022-09-04T03:19:10.530Z,20.20
2022-09-04T03:22:00.906Z,20.20
2022-09-04T03:25:37.280Z,20.20
2022-09-04T03:28:09.645Z,20.20
2022-09-04T03:30:39.619Z,20.10
2022-09-04T03:33:27.561Z,20.20
2022-09-04T03:36:43.758Z,20.10
2022-09-04T03:40:01.507Z,20.10
2022-09-04T03:42:42.405Z,20.10
2022-09-04T03:45:20.443Z,20.10
2022-09-04T03:47:53.102Z,20.10
2022-09-04T03:50:32.904Z,20.10
2022-09-04T03:53:36.212Z,20.00
2022-09-04T03:56:56.023Z,20.00
2022-09-04T03:59:59.937Z,20.00
2022-09-04T04:03:09.972Z,20.00
2022-09-04T04:06:18.738Z,20.00
2022-09-04T04:09:12.031Z,19.90
2022-09-04T04:12:03.371Z,19.90
2022-09-04T04:14:48.341Z,19.90
2022-09-04T04:17:41.885Z,19.90
2022-09-04T04:20:30.842Z,19.90
2022-09-04T04:23:31.517Z,19.80
2022-09-04T04:26:11.776Z,19.80
2022-09-04T04:29:43.048Z,19.80
2022-09-04T04:32:28.787Z,19.80
2022-09-04T04:35:04.608Z,19.80
2022-09-04T04:38:15.509Z,19.70
2022-09-04T04:41:25.253Z,19.70
2022-09-04T04:44:16.295Z,19.70
2022-09-04T04:47:22.375Z,19.70
2022-09-04T04:50:30.136Z,19.70
2022-09-04T04:53:17.300Z,19.60
2022-09-04T04:56:06.005Z,19.60
2022-09-04T04:58:59.092Z,19.60
2022-09-04T05:02:07.879Z,19.60
2022-09-04T05:05:46.601Z,19.60
2022-09-04T05:08:44.350Z,19.60
2022-09-04T05:11:42.580Z,19.60
2022-09-04T05:14:44.791Z,19.60
2022-09-04T05:17:41.065Z,19.60
2022-09-04T05:20:41.716Z,19.60
2022-09-04T05:23:57.403Z,19.60
2022-09-04T05:26:36.690Z,19.60
2022-09-04T05:29:17.824Z,19.70
2022-09-04T05:31:59.415Z,19.60
2022-09-04T05:34:51.863Z,19.70
2022-09-04T05:37:37.937Z,19.70
2022-09-04T05:40:30.168Z,19.70
2022-09-04T05:43:27.441Z,19.80
2022-09-04T05:46:39.377Z,19.80
2022-09-04T05:49:31.645Z,19.90
2022-09-04T05:53:08.991Z,19.90
2022-09-04T05:56:03.700Z,20.00
2022-09-04T05:59:04.783Z,20.00
2022-09-04T06:02:14.616Z,20.10
2022-09-04T06:04:59.792Z,20.10
2022-09-04T06:08:05.542Z,20.20
2022-09-04T06:11:33.279Z,20.30
2022-09-04T06:14:25.088Z,20.40
2022-09-04T06:17:20.385Z,20.50
2022-09-04T06:20:09.098Z,20.70
2022-09-04T06:22:49.518Z,20.80
2022-09-04T06:25:48.088Z,21.00
2022-09-04T06:29:05.699Z,21.20
2022-09-04T06:32:22.735Z,21.40
2022-09-04T06:35:58.488Z,21.50
2022-09-04T06:39:15.166Z,21.60
2022-09-04T06:42:06.829Z,21.80
2022-09-04T06:45:07.304Z,21.80
2022-09-04T06:48:00.615Z,21.90
2022-09-04T06:50:57.154Z,22.00
2022-09-04T06:53:48.595Z,22.10
2022-09-04T06:57:02.241Z,22.10
2022-09-04T06:59:54.274Z,22.20
2022-09-04T07:02:58.030Z,22.20
2022-09-04T07:06:10.349Z,22.30
2022-09-04T07:09:20.481Z,22.40
2022-09-04T07:12:09.101Z,22.40
2022-09-04T07:15:00.522Z,22.50
2022-09-04T07:17:53.569Z,22.60
2022-09-04T07:20:36.072Z,22.70
2022-09-04T07:23:17.996Z,22.80
2022-09-04T07:26:13.706Z,22.90
2022-09-04T07:29:29.809Z,22.90
2022-09-04T07:32:22.471Z,23.00
2022-09-04T07:35:20.015Z,23.10
2022-09-04T07:38:16.060Z,23.20
2022-09-04T07:40:52.006Z,23.30
2022-09-04T07:43:24.619Z,23.40
2022-09-04T07:46:14.052Z,23.50
2022-09-04T07:48:51.055Z,23.60
2022-09-04T07:51:26.113Z,23.70
2022-09-04T07:54:22.694Z,23.80
2022-09-04T07:57:13.676Z,23.90
2022-09-04T07:59:59.477Z,24.00
2022-09-04T08:02:56.794Z,24.10
2022-09-04T08:06:01.503Z,24.20
2022-09-04T08:09:18.456Z,24.30
2022-09-04T08:12:18.228Z,24.50
2022-09-04T08:15:05.947Z,24.60
2022-09-04T08:17:59.356Z,24.70
2022-09-04T08:20:41.019Z,24.80
2022-09-04T08:23:29.913Z,24.90
2022-09-04T08:26:40.405Z,25.00
2022-09-04T08:29:45.626Z,25.10
2022-09-04T08:32:47.709Z,25.20
2022-09-04T08:35:31.755Z,25.30
2022-09-04T08:38:19.156Z,25.40
2022-09-04T08:41:36.436Z,25.60
2022-09-04T08:45:00.000Z,25.70
2022-09-04T08:48:13.105Z,25.80
2022-09-04T08:50:59.858Z,26.00
2022-09-04T08:54:04.533Z,26.10
2022-09-04T08:57:17.753Z,26.20
2022-09-04T09:00:05.476Z,26.40
2022-09-04T09:03:12.781Z,26.50
2022-09-04T09:06:06.865Z,26.60
2022-09-04T09:09:03.402Z,26.70
2022-09-04T09:11:50.219Z,26.80
2022-09-04T09:14:20.415Z,27.00
2022-09-04T09:17:03.261Z,27.30
2022-09-04T09:20:09.490Z,27.50
2022-09-04T09:23:21.308Z,28.00
2022-09-04T09:26:18.239Z,28.50
2022-09-04T09:28:48.312Z,29.00
2022-09-04T09:32:07.583Z,29.50
2022-09-04T09:35:09.014Z,29.90
2022-09-04T09:38:14.959Z,30.50
2022-09-04T09:41:04.136Z,30.90
2022-09-04T09:44:08.645Z,31.40
2022-09-04T09:47:08.138Z,31.60
2022-09-04T09:49:56.541Z,31.90
2022-09-04T09:53:16.088Z,32.10
2022-09-04T09:56:29.950Z,32.30
2022-09-04T09:59:40.749Z,32.60
2022-09-04T10:02:35.316Z,32.80
2022-09-04T10:05:42.145Z,33.10
2022-09-04T10:08:56.149Z,33.30
2022-09-04T10:11:56.905Z,33.60
2022-09-04T10:14:57.817Z,33.70
2022-09-04T10:17:56.081Z,33.90
2022-09-04T10:21:20.919Z,34.00
2022-09-04T10:24:34.171Z,34.10
2022-09-04T10:27:50.390Z,34.20
2022-09-04T10:30:28.587Z,34.30
2022-09-04T10:33:27.380Z,34.40
2022-09-04T10:36:37.968Z,34.40
2022-09-04T10:39:37.426Z,34.60
2022-09-04T10:42:51.514Z,34.80
2022-09-04T10:45:58.205Z,35.10
2022-09-04T10:48:51.179Z,35.30
2022-09-04T10:51:34.726Z,35.40
2022-09-04T10:54:26.330Z,35.30
2022-09-04T10:57:33.781Z,35.20
2022-09-04T11:00:51.402Z,35.00
2022-09-04T11:03:52.894Z,34.90
2022-09-04T11:06:37.916Z,34.90
2022-09-04T11:09:16.822Z,35.00
2022-09-04T11:12:11.086Z,35.10
2022-09-04T11:15:12.955Z,35.20
2022-09-04T11:18:04.204Z,35.40
2022-09-04T11:21:21.273Z,35.60
2022-09-04T11:24:42.296Z,35.80
2022-09-04T11:28:03.589Z,35.90
2022-09-04T11:31:03.881Z,35.90
2022-09-04T11:34:14.489Z,35.90
2022-09-04T11:37:15.621Z,35.90
2022-09-04T11:40:13.019Z,35.90
2022-09-04T11:43:44.043Z,36.10
2022-09-04T11:46:20.286Z,36.40
2022-09-04T11:49:22.973Z,36.50
2022-09-04T11:52:18.337Z,36.60
2022-09-04T11:55:22.521Z,36.80
2022-09-04T11:58:30.946Z,36.90
2022-09-04T12:01:25.688Z,37.10
2022-09-04T12:04:31.827Z,37.20
2022-09-04T12:07:40.715Z,37.40
2022-09-04T12:10:15.974Z,37.60
2022-09-04T12:13:27.792Z,37.80
2022-09-04T12:16:06.405Z,37.80
2022-09-04T12:18:41.599Z,37.90
2022-09-04T12:22:01.177Z,38.00
2022-09-04T12:24:49.901Z,38.00
2022-09-04T12:30:50.352Z,37.70
2022-09-04T12:33:26.202Z,37.30
2022-09-04T12:36:10.320Z,36.90
2022-09-04T12:39:08.151Z,36.70
2022-09-04T12:42:07.693Z,36.60
2022-09-04T12:44:48.853Z,36.40
2022-09-04T12:47:55.520Z,36.50
2022-09-04T12:50:36.361Z,36.60
2022-09-04T12:53:26.135Z,36.70
2022-09-04T12:56:28.579Z,36.90
2022-09-04T12:59:17.966Z,37.10
2022-09-04T13:02:24.323Z,37.40
2022-09-04T13:05:09.930Z,37.50
2022-09-04T13:08:34.261Z,37.60
2022-09-04T13:11:49.664Z,37.70
2022-09-04T13:15:00.865Z,37.70
2022-09-04T13:17:50.433Z,37.70
2022-09-04T13:20:53.378Z,37.80
2022-09-04T13:23:49.909Z,37.80
2022-09-04T13:26:43.088Z,38.00
2022-09-04T13:29:30.239Z,38.00
2022-09-04T13:32:22.484Z,38.10
2022-09-04T13:35:25.240Z,38.10
2022-09-04T13:38:37.426Z,38.10
2022-09-04T13:41:46.927Z,38.10
2022-09-04T13:45:12.032Z,38.10
2022-09-04T13:48:07.248Z,38.10
2022-09-04T13:50:52.441Z,38.10
2022-09-04T13:53:44.810Z,38.00
2022-09-04T13:56:23.286Z,37.90
2022-09-04T13:58:59.333Z,37.90
2022-09-04T14:01:29.981Z,37.90
2022-09-04T14:04:05.084Z,37.90
2022-09-04T14:06:36.405Z,38.00
2022-09-04T14:09:06.234Z,38.10
2022-09-04T14:12:37.462Z,38.10
2022-09-04T14:15:19.811Z,38.10
2022-09-04T14:18:37.964Z,38.20
2022-09-04T14:21:45.453Z,38.20
2022-09-04T14:24:50.802Z,38.40
2022-09-04T14:27:57.759Z,38.50
2022-09-04T14:30:25.300Z,38.60
2022-09-04T14:33:18.967Z,38.60
2022-09-04T14:36:38.452Z,38.70
2022-09-04T14:39:20.700Z,38.80
2022-09-04T14:42:35.781Z,38.80
2022-09-04T14:45:18.300Z,38.70
2022-09-04T14:47:56.657Z,38.60
2022-09-04T14:50:29.592Z,38.50
2022-09-04T14:53:08.990Z,38.50
2022-09-04T14:56:02.075Z,38.40
2022-09-04T14:58:42.169Z,38.50
2022-09-04T15:01:21.254Z,38.50
2022-09-04T15:04:10.308Z,38.50
2022-09-04T15:07:29.465Z,38.50
2022-09-04T15:10:12.924Z,38.40
2022-09-04T15:13:24.206Z,38.40
2022-09-04T15:16:23.859Z,38.20
2022-09-04T15:19:05.349Z,38.00
2022-09-04T15:22:31.422Z,37.90
2022-09-04T15:25:08.995Z,37.80
2022-09-04T15:27:51.812Z,37.70
2022-09-04T15:30:28.626Z,37.70
2022-09-04T15:33:11.830Z,37.60
2022-09-04T15:35:41.109Z,37.60
2022-09-04T15:38:26.207Z,37.60
2022-09-04T15:41:17.930Z,37.60
2022-09-04T15:44:29.222Z,37.50
2022-09-04T15:47:37.347Z,37.50
2022-09-04T15:50:19.346Z,37.40
2022-09-04T15:52:58.753Z,37.30
2022-09-04T15:55:40.421Z,37.20
2022-09-04T15:58:31.791Z,37.10
2022-09-04T16:01:45.021Z,37.10
2022-09-04T16:05:06.120Z,37.00
2022-09-04T16:08:03.883Z,37.00
2022-09-04T16:10:57.483Z,37.00
2022-09-04T16:13:56.999Z,37.00
2022-09-04T16:16:44.603Z,37.10
2022-09-04T16:19:46.866Z,37.20
2022-09-04T16:22:46.401Z,37.30
2022-09-04T16:25:29.271Z,37.30
2022-09-04T16:29:09.224Z,37.40
2022-09-04T16:31:37.168Z,37.50
2022-09-04T16:34:25.031Z,37.60
2022-09-04T16:37:09.631Z,37.70
2022-09-04T16:40:04.984Z,37.70
2022-09-04T16:43:03.020Z,37.80
2022-09-04T16:45:44.498Z,37.80
2022-09-04T16:48:35.510Z,37.90
2022-09-04T16:51:41.175Z,37.90
2022-09-04T16:54:31.057Z,37.90
2022-09-04T16:57:16.524Z,37.90
2022-09-04T17:00:01.294Z,37.80
2022-09-04T17:02:51.235Z,37.70
2022-09-04T17:05:28.614Z,37.50
2022-09-04T17:08:22.237Z,37.30
2022-09-04T17:10:58.149Z,37.10
2022-09-04T17:14:08.567Z,36.90
2022-09-04T17:17:31.607Z,36.70
2022-09-04T17:20:06.810Z,36.50
2022-09-04T17:28:58.239Z,36.30
2022-09-04T17:29:15.230Z,36.00
2022-09-04T17:30:07.227Z,35.80
2022-09-04T17:40:32.260Z,35.50
2022-09-04T17:40:47.638Z,35.00
2022-09-04T17:40:51.890Z,35.30
2022-09-04T17:43:22.825Z,34.80
2022-09-04T17:46:36.885Z,34.50
2022-09-04T17:49:34.171Z,34.20
2022-09-04T17:52:09.075Z,33.90
2022-09-04T17:54:49.368Z,33.70
2022-09-04T17:58:03.612Z,33.30
2022-09-04T18:01:15.097Z,33.00
2022-09-04T18:04:19.901Z,32.70
2022-09-04T18:07:28.605Z,32.40
2022-09-04T18:10:25.344Z,32.10
2022-09-04T18:13:36.221Z,31.70
2022-09-04T18:17:11.118Z,31.40
2022-09-04T18:20:05.877Z,31.10
2022-09-04T18:22:45.069Z,30.80
2022-09-04T18:25:34.829Z,30.60
2022-09-04T18:28:20.047Z,30.40
2022-09-04T18:37:06.869Z,30.10
2022-09-04T18:37:25.488Z,29.90
2022-09-04T18:37:45.051Z,29.60
2022-09-04T18:40:50.379Z,29.40
2022-09-04T18:50:21.869Z,29.20
2022-09-04T18:50:32.526Z,28.80
2022-09-04T18:50:44.414Z,29.00
2022-09-04T18:52:20.762Z,28.60
2022-09-04T18:54:57.409Z,28.50
2022-09-04T18:57:32.996Z,28.30
2022-09-04T19:00:13.532Z,28.20
2022-09-04T19:02:55.539Z,28.00
2022-09-04T19:05:32.937Z,27.90
2022-09-04T19:08:47.354Z,27.80
2022-09-04T19:11:52.812Z,27.70
2022-09-04T19:14:35.312Z,27.50
2022-09-04T19:17:26.372Z,27.40
2022-09-04T19:20:06.065Z,27.30
2022-09-04T19:23:13.304Z,27.20
2022-09-04T19:25:50.200Z,27.10
2022-09-04T19:28:58.027Z,27.00
2022-09-04T19:31:43.465Z,26.90
2022-09-04T19:34:53.435Z,26.80
2022-09-04T19:40:16.597Z,26.70
2022-09-04T19:46:00.059Z,26.50
2022-09-04T19:46:02.982Z,26.60
2022-09-04T19:47:42.962Z,26.40
2022-09-04T19:53:31.771Z,26.30
2022-09-04T19:53:49.428Z,26.20
2022-09-04T19:56:38.042Z,26.10
2022-09-04T19:59:34.581Z,26.00
2022-09-04T20:02:19.786Z,26.00
2022-09-04T20:04:52.664Z,25.90
2022-09-04T20:07:55.522Z,25.80
2022-09-04T20:10:32.237Z,25.80
2022-09-04T20:13:46.905Z,25.70
2022-09-04T20:16:17.058Z,25.60
2022-09-04T20:19:16.780Z,25.60
2022-09-04T20:22:26.807Z,25.50
2022-09-04T20:25:48.950Z,25.40
2022-09-04T20:28:52.789Z,25.30
2022-09-04T20:31:45.130Z,25.20
2022-09-04T20:34:35.030Z,25.20
2022-09-04T20:37:26.885Z,25.10
2022-09-04T20:40:41.214Z,25.00
2022-09-04T20:43:26.958Z,25.00
2022-09-04T20:49:59.032Z,24.90
2022-09-04T20:52:53.302Z,24.80
2022-09-04T20:52:53.683Z,24.80
2022-09-04T20:55:47.386Z,24.70
2022-09-04T21:03:13.847Z,24.60
2022-09-04T21:03:20.725Z,24.60
2022-09-04T21:05:02.213Z,24.50
2022-09-04T21:07:41.412Z,24.50
2022-09-04T21:10:49.634Z,24.40
2022-09-04T21:13:41.151Z,24.40
2022-09-04T21:16:51.222Z,24.40
2022-09-04T21:19:28.642Z,24.40
2022-09-04T21:22:33.352Z,24.40
2022-09-04T21:25:24.991Z,24.30
2022-09-04T21:28:00.790Z,24.30
2022-09-04T21:30:57.885Z,24.30
2022-09-04T21:33:50.750Z,24.20
2022-09-04T21:36:41.302Z,24.20
2022-09-04T21:39:39.407Z,24.10
2022-09-04T21:42:43.851Z,24.10
2022-09-04T21:45:31.330Z,24.00
2022-09-04T21:48:29.395Z,24.00
2022-09-04T21:51:29.087Z,24.00
2022-09-04T21:54:38.008Z,23.90
2022-09-04T22:02:26.171Z,23.90
2022-09-04T22:02:39.685Z,23.90
2022-09-04T22:03:35.302Z,23.80
2022-09-04T22:07:05.253Z,23.80
2022-09-04T22:13:46.418Z,23.80
2022-09-04T22:13:47.955Z,23.70
2022-09-04T22:16:42.269Z,23.70
2022-09-04T22:19:25.205Z,23.60
2022-09-04T22:22:23.963Z,23.60
2022-09-04T22:25:29.040Z,23.50
2022-09-04T22:28:08.992Z,23.50
2022-09-04T22:31:01.364Z,23.40
2022-09-04T22:34:14.409Z,23.40
2022-09-04T22:37:12.911Z,23.40
2022-09-04T22:40:15.483Z,23.40
2022-09-04T22:43:07.100Z,23.30
2022-09-04T22:46:06.461Z,23.30
2022-09-04T22:49:11.660Z,23.20
2022-09-04T22:51:55.363Z,23.20
2022-09-04T22:54:41.047Z,23.20
2022-09-04T22:57:27.411Z,23.20
2022-09-04T23:00:13.271Z,23.10
2022-09-04T23:03:15.343Z,23.10
2022-09-04T23:06:24.886Z,23.00
2022-09-04T23:13:50.372Z,23.00
2022-09-04T23:13:54.383Z,23.00
2022-09-04T23:16:30.425Z,22.90
2022-09-04T23:26:30.936Z,22.90
2022-09-04T23:26:43.772Z,22.80
2022-09-04T23:26:53.587Z,22.80
2022-09-04T23:29:41.220Z,22.70
2022-09-04T23:32:55.112Z,22.70
2022-09-04T23:36:16.986Z,22.70
2022-09-04T23:39:45.577Z,22.60
2022-09-04T23:42:37.511Z,22.60
2022-09-04T23:45:32.284Z,22.50
2022-09-04T23:48:33.152Z,22.50
2022-09-04T23:51:43.729Z,22.40
2022-09-04T23:54:55.865Z,22.30
2022-09-04T23:57:47.676Z,22.30
